createdAt,value
2023-02-11T00:00:03.147Z,4.88
2023-02-11T00:03:06.506Z,4.53
2023-02-11T00:06:11.429Z,3.60
2023-02-11T00:09:13.016Z,0.80
2023-02-11T00:12:15.773Z,2.47
2023-02-11T00:15:17.415Z,2.65
2023-02-11T00:18:19.061Z,2.90
2023-02-11T00:21:25.061Z,2.75
2023-02-11T00:24:26.607Z,3.07
2023-02-11T00:27:28.274Z,3.05
2023-02-11T00:30:29.961Z,2.38
2023-02-11T00:33:31.625Z,2.22
2023-02-11T00:36:33.266Z,1.08
2023-02-11T00:39:35.022Z,3.67
2023-02-11T00:42:38.216Z,3.13
2023-02-11T00:45:39.879Z,2.65
2023-02-11T00:48:41.495Z,2.65
2023-02-11T00:51:43.071Z,1.20
2023-02-11T00:54:44.843Z,3.17
2023-02-11T00:57:46.650Z,2.40
2023-02-11T01:00:50.754Z,0.85
2023-02-11T01:03:52.361Z,2.95
2023-02-11T01:06:54.181Z,3.30
2023-02-11T01:09:56.007Z,1.38
2023-02-11T01:12:57.577Z,1.75
2023-02-11T01:16:00.995Z,0.77
2023-02-11T01:19:02.710Z,1.42
2023-02-11T01:22:04.800Z,2.25
2023-02-11T01:25:07.011Z,2.45
2023-02-11T01:28:16.529Z,2.88
2023-02-11T01:31:18.318Z,3.22
2023-02-11T01:34:20.023Z,2.17
2023-02-11T01:37:21.624Z,3.28
2023-02-11T01:40:23.269Z,2.90
2023-02-11T01:43:25.421Z,2.00
2023-02-11T01:46:37.880Z,2.65
2023-02-11T01:49:44.602Z,2.20
2023-02-11T01:52:47.904Z,0.68
2023-02-11T01:56:10.428Z,2.67
2023-02-11T01:59:14.991Z,3.03
2023-02-11T02:02:18.219Z,2.50
2023-02-11T02:05:23.434Z,1.63
2023-02-11T02:08:35.758Z,0.65
2023-02-11T02:11:37.590Z,0.82
2023-02-11T02:14:40.680Z,1.83
2023-02-11T02:17:46.966Z,1.63
2023-02-11T02:20:57.769Z,1.90
2023-02-11T02:24:17.935Z,1.38
2023-02-11T02:27:19.495Z,2.15
2023-02-11T02:30:21.180Z,1.95
2023-02-11T02:33:41.854Z,1.60
2023-02-11T02:36:48.228Z,2.13
2023-02-11T02:39:50.470Z,2.40
2023-02-11T02:42:52.842Z,2.25
2023-02-11T02:45:54.424Z,1.38
2023-02-11T02:48:56.712Z,1.20
2023-02-11T02:52:01.248Z,1.15
2023-02-11T02:55:12.174Z,1.50
2023-02-11T02:58:19.514Z,1.40
2023-02-11T03:01:24.189Z,1.88
2023-02-11T03:04:31.164Z,1.27
2023-02-11T03:07:37.916Z,1.77
2023-02-11T03:13:41.574Z,1.20
2023-02-11T03:16:44.674Z,1.20
2023-02-11T03:19:48.310Z,1.30
2023-02-11T03:22:55.974Z,2.38
2023-02-11T03:26:05.622Z,1.00
2023-02-11T03:29:16.545Z,1.13
2023-02-11T03:32:32.866Z,0.80
2023-02-11T03:35:46.010Z,0.95
2023-02-11T03:38:49.268Z,1.17
2023-02-11T03:41:51.568Z,1.90
2023-02-11T03:44:55.945Z,1.80
2023-02-11T03:48:00.580Z,0.80
2023-02-11T03:51:03.264Z,1.80
2023-02-11T03:54:07.410Z,0.57
2023-02-11T03:57:09.192Z,0.68
2023-02-11T04:00:11.440Z,1.48
2023-02-11T04:03:15.618Z,0.75
2023-02-11T04:06:17.304Z,0.77
2023-02-11T04:09:18.909Z,0.43
2023-02-11T04:12:20.563Z,2.47
2023-02-11T04:15:22.276Z,0.28
2023-02-11T04:18:23.934Z,2.35
2023-02-11T04:21:25.507Z,2.70
2023-02-11T04:24:27.100Z,0.82
2023-02-11T04:27:28.690Z,0.40
2023-02-11T04:30:30.261Z,0.88
2023-02-11T04:33:31.976Z,1.35
2023-02-11T04:36:33.599Z,0.30
2023-02-11T04:39:35.292Z,1.02
2023-02-11T04:42:36.908Z,1.20
2023-02-11T04:45:38.440Z,1.05
2023-02-11T04:48:40.036Z,0.10
2023-02-11T04:51:41.876Z,1.60
2023-02-11T04:54:43.432Z,0.57
2023-02-11T04:57:45.010Z,0.88
2023-02-11T05:00:47.129Z,1.00
2023-02-11T05:03:48.960Z,1.38
2023-02-11T05:06:50.641Z,0.60
2023-02-11T05:09:52.207Z,0.45
2023-02-11T05:12:55.908Z,0.98
2023-02-11T05:15:57.769Z,1.33
2023-02-11T05:18:59.429Z,0.00
2023-02-11T05:22:03.491Z,0.70
2023-02-11T05:25:05.538Z,0.85
2023-02-11T05:28:07.622Z,0.68
2023-02-11T05:31:09.839Z,0.40
2023-02-11T05:34:11.505Z,0.68
2023-02-11T05:37:13.286Z,0.75
2023-02-11T05:40:15.099Z,1.05
2023-02-11T05:43:16.669Z,1.25
2023-02-11T05:46:18.286Z,0.90
2023-02-11T05:49:19.880Z,1.33
2023-02-11T05:52:22.193Z,1.35
2023-02-11T05:55:23.743Z,1.45
2023-02-11T05:58:25.359Z,0.60
2023-02-11T06:01:26.931Z,0.52
2023-02-11T06:04:28.461Z,0.45
2023-02-11T06:07:30.028Z,0.52
2023-02-11T06:10:31.696Z,1.15
2023-02-11T06:13:33.318Z,2.00
2023-02-11T06:16:35.010Z,1.02
2023-02-11T06:19:36.671Z,1.60
2023-02-11T06:22:38.244Z,1.25
2023-02-11T06:25:39.868Z,1.30
2023-02-11T06:28:42.081Z,0.82
2023-02-11T06:31:43.905Z,1.80
2023-02-11T06:34:45.892Z,1.00
2023-02-11T06:37:49.629Z,1.05
2023-02-11T06:40:51.253Z,1.08
2023-02-11T06:43:53.334Z,0.45
2023-02-11T06:46:54.972Z,2.67
2023-02-11T06:49:56.591Z,1.85
2023-02-11T06:52:59.194Z,1.08
2023-02-11T06:56:04.167Z,2.08
2023-02-11T06:59:05.828Z,0.88
2023-02-11T07:02:09.196Z,0.95
2023-02-11T07:05:10.764Z,0.70
2023-02-11T07:08:12.660Z,1.02
2023-02-11T07:11:19.149Z,1.02
2023-02-11T07:14:20.799Z,2.28
2023-02-11T07:17:22.401Z,1.40
2023-02-11T07:20:24.056Z,1.35
2023-02-11T07:23:25.638Z,0.80
2023-02-11T07:26:27.494Z,0.20
2023-02-11T07:29:29.186Z,0.47
2023-02-11T07:32:30.791Z,2.03
2023-02-11T07:35:32.358Z,1.05
2023-02-11T07:38:34.689Z,4.40
2023-02-11T07:41:38.024Z,1.85
2023-02-11T07:44:39.773Z,0.00
2023-02-11T07:47:42.883Z,1.92
2023-02-11T07:50:44.518Z,1.67
2023-02-11T07:53:46.262Z,1.92
2023-02-11T07:56:47.918Z,0.57
2023-02-11T07:59:49.561Z,1.80
2023-02-11T08:02:51.158Z,2.50
2023-02-11T08:05:52.961Z,3.55
2023-02-11T08:08:54.848Z,3.42
2023-02-11T08:11:56.440Z,1.42
2023-02-11T08:14:58.025Z,3.90
2023-02-11T08:17:59.604Z,0.88
2023-02-11T08:21:07.733Z,2.67
2023-02-11T08:24:09.937Z,1.95
2023-02-11T08:27:11.529Z,3.80
2023-02-11T08:30:13.466Z,1.70
2023-02-11T08:33:15.088Z,2.88
2023-02-11T08:36:21.256Z,0.20
2023-02-11T08:39:22.962Z,1.65
2023-02-11T08:42:24.633Z,0.00
2023-02-11T08:45:26.247Z,4.60
2023-02-11T08:48:28.712Z,3.40
2023-02-11T08:51:31.594Z,2.83
2023-02-11T08:54:33.213Z,3.97
2023-02-11T08:57:34.825Z,4.47
2023-02-11T09:00:36.442Z,3.08
2023-02-11T09:03:38.023Z,2.17
2023-02-11T09:06:39.743Z,6.40
2023-02-11T09:09:41.377Z,5.00
2023-02-11T09:12:42.952Z,6.35
2023-02-11T09:15:47.620Z,6.20
2023-02-11T09:18:49.511Z,5.95
2023-02-11T09:21:51.134Z,6.38
2023-02-11T09:24:52.733Z,5.20
2023-02-11T09:27:54.300Z,6.15
2023-02-11T09:30:55.994Z,7.20
2023-02-11T09:34:02.249Z,6.35
2023-02-11T09:37:03.829Z,5.43
2023-02-11T09:40:05.697Z,6.18
2023-02-11T09:43:10.946Z,4.00
2023-02-11T09:46:14.961Z,6.13
2023-02-11T09:49:20.127Z,7.32
2023-02-11T09:52:36.001Z,6.22
2023-02-11T09:55:43.134Z,4.20
2023-02-11T09:58:45.262Z,6.65
2023-02-11T10:01:46.949Z,5.25
2023-02-11T10:05:00.746Z,4.97
2023-02-11T10:08:19.750Z,7.45
2023-02-11T10:11:31.662Z,4.95
2023-02-11T10:14:49.148Z,5.22
2023-02-11T10:17:50.701Z,5.65
2023-02-11T10:21:22.561Z,4.40
2023-02-11T10:24:24.390Z,6.57
2023-02-11T10:27:31.630Z,5.22
2023-02-11T10:30:36.269Z,5.47
2023-02-11T10:33:46.433Z,6.35
2023-02-11T10:36:48.105Z,5.85
2023-02-11T10:39:49.719Z,5.30
2023-02-11T10:42:55.483Z,6.15
2023-02-11T10:45:57.799Z,6.33
2023-02-11T10:48:59.520Z,3.95
2023-02-11T10:52:19.655Z,4.82
2023-02-11T10:55:26.032Z,5.55
2023-02-11T10:58:32.706Z,3.97
2023-02-11T11:01:39.389Z,5.05
2023-02-11T11:04:42.814Z,5.65
2023-02-11T11:07:55.482Z,4.07
2023-02-11T11:11:04.903Z,4.72
2023-02-11T11:14:18.532Z,3.70
2023-02-11T11:17:20.090Z,3.22
2023-02-11T11:20:23.955Z,3.80
2023-02-11T11:23:25.936Z,3.38
2023-02-11T11:26:38.814Z,4.13
2023-02-11T11:29:45.157Z,3.30
2023-02-11T11:32:46.884Z,4.10
2023-02-11T11:35:59.148Z,3.42
2023-02-11T11:39:02.076Z,5.13
2023-02-11T11:42:07.942Z,3.72
2023-02-11T11:45:15.424Z,4.23
2023-02-11T11:48:49.466Z,3.88
2023-02-11T11:52:05.991Z,3.13
2023-02-11T11:55:10.644Z,4.03
2023-02-11T11:58:20.325Z,3.20
2023-02-11T12:01:36.893Z,4.35
2023-02-11T12:04:57.092Z,4.43
2023-02-11T12:07:58.729Z,4.45
2023-02-11T12:11:09.097Z,4.95
2023-02-11T12:14:29.497Z,4.28
2023-02-11T12:17:33.787Z,3.40
2023-02-11T12:20:40.438Z,3.72
2023-02-11T12:24:01.829Z,4.03
2023-02-11T12:27:21.869Z,4.18
2023-02-11T12:30:29.499Z,4.50
2023-02-11T12:33:49.820Z,4.68
2023-02-11T12:37:03.481Z,3.75
2023-02-11T12:40:24.171Z,4.93
2023-02-11T12:43:39.458Z,3.88
2023-02-11T12:46:45.473Z,3.85
2023-02-11T12:49:49.848Z,4.18
2023-02-11T12:53:10.256Z,4.78
2023-02-11T12:56:15.937Z,3.90
2023-02-11T12:59:29.705Z,3.85
2023-02-11T13:02:41.759Z,4.50
2023-02-11T13:05:52.647Z,4.60
2023-02-11T13:08:58.518Z,5.13
2023-02-11T13:12:22.332Z,5.03
2023-02-11T13:15:25.902Z,4.43
2023-02-11T13:18:30.856Z,5.00
2023-02-11T13:21:38.319Z,5.10
2023-02-11T13:24:44.618Z,5.07
2023-02-11T13:28:05.002Z,5.88
2023-02-11T13:31:08.752Z,5.15
2023-02-11T13:34:28.999Z,4.97
2023-02-11T13:37:34.602Z,5.85
2023-02-11T13:40:37.944Z,5.30
2023-02-11T13:43:39.513Z,4.95
2023-02-11T13:47:00.194Z,5.60
2023-02-11T13:50:02.735Z,6.03
2023-02-11T13:53:04.989Z,5.78
2023-02-11T13:56:08.305Z,5.28
2023-02-11T13:59:25.014Z,4.47
2023-02-11T14:02:47.138Z,5.20
2023-02-11T14:06:27.262Z,4.53
2023-02-11T14:09:39.757Z,5.03
2023-02-11T14:12:41.370Z,3.03
2023-02-11T14:15:45.933Z,0.68
2023-02-11T14:18:47.540Z,1.13
2023-02-11T14:21:49.182Z,0.20
2023-02-11T14:24:58.609Z,0.40
2023-02-11T14:28:00.221Z,1.45
2023-02-11T14:31:07.900Z,0.85
2023-02-11T14:34:29.884Z,0.35
2023-02-11T14:37:37.853Z,0.90
2023-02-11T14:40:49.938Z,0.65
2023-02-11T14:44:03.770Z,1.52
2023-02-11T14:47:05.544Z,0.50
2023-02-11T14:50:09.926Z,2.25
2023-02-11T14:53:19.544Z,0.65
2023-02-11T14:56:22.742Z,0.40
2023-02-11T14:59:24.460Z,1.02
2023-02-11T15:02:29.920Z,0.93
2023-02-11T15:05:31.515Z,0.98
2023-02-11T15:08:34.631Z,2.25
2023-02-11T15:11:39.812Z,1.80
2023-02-11T15:14:45.625Z,1.92
2023-02-11T15:17:47.529Z,1.83
2023-02-11T15:20:50.004Z,2.65
2023-02-11T15:23:56.125Z,2.22
2023-02-11T15:27:15.475Z,1.87
2023-02-11T15:30:23.182Z,2.90
2023-02-11T15:33:30.040Z,1.60
2023-02-11T15:36:34.337Z,1.90
2023-02-11T15:39:42.181Z,3.63
2023-02-11T15:42:56.766Z,2.58
2023-02-11T15:46:03.027Z,2.45
2023-02-11T15:49:04.852Z,2.65
2023-02-11T15:52:08.251Z,1.90
2023-02-11T15:55:13.419Z,2.25
2023-02-11T15:58:15.109Z,1.40
2023-02-11T16:01:16.756Z,1.98
2023-02-11T16:04:22.705Z,2.85
2023-02-11T16:07:42.796Z,2.43
2023-02-11T16:10:53.701Z,2.70
2023-02-11T16:13:55.388Z,3.72
2023-02-11T16:17:02.290Z,1.60
2023-02-11T16:20:03.929Z,3.78
2023-02-11T16:23:06.316Z,1.05
2023-02-11T16:26:11.572Z,3.13
2023-02-11T16:29:14.502Z,2.30
2023-02-11T16:32:17.529Z,1.42
2023-02-11T16:35:19.130Z,2.17
2023-02-11T16:38:20.782Z,3.95
2023-02-11T16:41:22.344Z,0.63
2023-02-11T16:44:24.390Z,2.95
2023-02-11T16:47:27.074Z,1.80
2023-02-11T16:50:30.008Z,3.17
2023-02-11T16:53:32.334Z,1.02
2023-02-11T16:56:33.879Z,2.28
2023-02-11T16:59:35.459Z,2.00
2023-02-11T17:02:37.813Z,2.08
2023-02-11T17:05:58.302Z,1.92
2023-02-11T17:09:00.138Z,3.55
2023-02-11T17:12:01.834Z,1.98
2023-02-11T17:15:05.426Z,2.22
2023-02-11T17:18:09.410Z,3.55
2023-02-11T17:21:11.377Z,1.80
2023-02-11T17:24:14.315Z,2.25
2023-02-11T17:27:16.222Z,1.17
2023-02-11T17:30:17.944Z,1.60
2023-02-11T17:33:19.551Z,1.60
2023-02-11T17:36:21.075Z,2.00
2023-02-11T17:39:22.669Z,2.50
2023-02-11T17:42:24.261Z,4.40
2023-02-11T17:45:25.885Z,2.55
2023-02-11T17:48:27.516Z,1.95
2023-02-11T17:51:32.069Z,3.17
2023-02-11T17:54:33.644Z,2.92
2023-02-11T17:57:35.331Z,2.70
2023-02-11T18:00:36.959Z,3.30
2023-02-11T18:03:38.553Z,3.10
2023-02-11T18:06:40.205Z,3.50
2023-02-11T18:09:41.901Z,3.17
2023-02-11T18:12:43.454Z,2.30
2023-02-11T18:15:45.026Z,3.25
2023-02-11T18:18:46.992Z,3.08
2023-02-11T18:21:50.478Z,4.13
2023-02-11T18:24:53.054Z,3.90
2023-02-11T18:27:54.636Z,3.03
2023-02-11T18:30:57.459Z,3.28
2023-02-11T18:33:59.037Z,3.42
2023-02-11T18:37:00.855Z,2.95
2023-02-11T18:40:02.449Z,4.22
2023-02-11T18:43:04.018Z,3.15
2023-02-11T18:46:12.606Z,3.30
2023-02-11T18:49:14.564Z,4.22
2023-02-11T18:52:16.157Z,2.97
2023-02-11T18:55:22.612Z,0.77
2023-02-11T18:58:25.209Z,2.63
2023-02-11T19:01:27.934Z,1.80
2023-02-11T19:04:29.759Z,3.38
2023-02-11T19:07:32.486Z,1.50
2023-02-11T19:10:34.064Z,3.47
2023-02-11T19:13:35.778Z,1.95
2023-02-11T19:16:38.879Z,3.80
2023-02-11T19:19:41.270Z,1.60
2023-02-11T19:22:43.336Z,4.78
2023-02-11T19:25:46.591Z,4.32
2023-02-11T19:28:48.148Z,2.38
2023-02-11T19:31:50.013Z,3.25
2023-02-11T19:34:52.156Z,1.75
2023-02-11T19:37:53.745Z,2.10
2023-02-11T19:40:55.713Z,4.20
2023-02-11T19:43:57.455Z,2.58
2023-02-11T19:46:59.983Z,2.20
2023-02-11T19:50:01.745Z,2.38
2023-02-11T19:53:03.514Z,2.45
2023-02-11T19:56:08.381Z,3.58
2023-02-11T19:59:09.947Z,3.10
2023-02-11T20:02:12.897Z,3.58
2023-02-11T20:05:14.495Z,3.15
2023-02-11T20:08:17.144Z,2.45
2023-02-11T20:11:19.616Z,1.65
2023-02-11T20:14:21.194Z,2.20
2023-02-11T20:17:22.777Z,3.53
2023-02-11T20:20:24.389Z,1.35
2023-02-11T20:23:25.967Z,3.22
2023-02-11T20:26:31.332Z,3.33
2023-02-11T20:29:32.922Z,1.38
2023-02-11T20:32:38.254Z,2.38
2023-02-11T20:35:39.848Z,1.52
2023-02-11T20:38:41.573Z,1.50
2023-02-11T20:41:45.841Z,5.03
2023-02-11T20:44:47.519Z,1.10
2023-02-11T20:47:49.113Z,2.05
2023-02-11T20:50:50.659Z,1.98
2023-02-11T20:53:52.717Z,2.67
2023-02-11T20:56:55.383Z,2.20
2023-02-11T20:59:57.193Z,3.60
2023-02-11T21:02:58.781Z,2.85
2023-02-11T21:06:00.910Z,3.70
2023-02-11T21:09:03.668Z,3.25
2023-02-11T21:12:06.066Z,1.17
2023-02-11T21:15:09.601Z,2.95
2023-02-11T21:18:11.150Z,0.15
2023-02-11T21:21:12.975Z,4.93
2023-02-11T21:24:14.543Z,2.15
2023-02-11T21:27:16.224Z,5.47
2023-02-11T21:30:18.147Z,1.60
2023-02-11T21:33:19.803Z,3.05
2023-02-11T21:36:22.375Z,3.35
2023-02-11T21:39:23.980Z,1.35
2023-02-11T21:42:25.578Z,1.83
2023-02-11T21:45:27.219Z,1.15
2023-02-11T21:48:28.802Z,1.08
2023-02-11T21:51:30.443Z,3.00
2023-02-11T21:54:32.270Z,2.03
2023-02-11T21:57:33.830Z,0.80
2023-02-11T22:00:35.489Z,2.55
2023-02-11T22:03:37.129Z,1.45
2023-02-11T22:06:38.719Z,1.98
2023-02-11T22:09:40.374Z,3.78
2023-02-11T22:12:41.916Z,1.70
2023-02-11T22:15:43.524Z,2.70
2023-02-11T22:18:47.832Z,2.30
2023-02-11T22:21:49.690Z,1.25
2023-02-11T22:24:51.293Z,4.15
2023-02-11T22:27:52.823Z,1.20
2023-02-11T22:30:55.741Z,1.83
2023-02-11T22:33:57.728Z,2.55
2023-02-11T22:36:59.299Z,2.25
2023-02-11T22:40:00.832Z,4.53
2023-02-11T22:43:02.473Z,5.10
2023-02-11T22:46:05.011Z,1.50
2023-02-11T22:49:07.343Z,2.05
2023-02-11T22:52:09.007Z,1.70
2023-02-11T22:55:10.611Z,0.35
2023-02-11T22:58:12.316Z,6.07
2023-02-11T23:01:14.066Z,1.92
2023-02-11T23:04:16.923Z,2.83
2023-02-11T23:07:18.584Z,1.08
2023-02-11T23:10:20.404Z,0.95
2023-02-11T23:13:21.987Z,4.45
2023-02-11T23:16:25.772Z,1.08
2023-02-11T23:19:27.441Z,1.85
2023-02-11T23:22:29.041Z,1.40
2023-02-11T23:25:31.327Z,3.67
2023-02-11T23:28:32.975Z,3.45
2023-02-11T23:31:37.434Z,1.63
2023-02-11T23:34:39.184Z,3.60
2023-02-11T23:37:40.759Z,4.82
2023-02-11T23:40:42.731Z,1.55
2023-02-11T23:43:44.294Z,1.63
2023-02-11T23:46:45.862Z,3.70
2023-02-11T23:49:47.458Z,2.35
2023-02-11T23:52:49.139Z,1.23
2023-02-11T23:55:50.713Z,2.13
2023-02-11T23:58:53.157Z,4.75
